Time;durP1;ratioP1;P1;durP2;ratioP2;P2;SDS_P1;SDS_P2;PMS_P1;PMS_P2;Temp;Humidity;BMP_temperature;BMP_pressure;BME280_temperature;BME280_humidity;BME280_pressure;Samples;Min_cycle;Max_cycle;Signal;HPM_P1;HPM_P2
2023/06/18 00:01:51;;;;;;;62.83;11.75;;;;;;;;;;5062382;28;20043;-58
2023/06/18 00:04:16;;;;;;;55.67;10.77;;;;;;;;;;5062203;28;20029;-57
2023/06/18 00:06:41;;;;;;;64.90;11.63;;;;;;;;;;5063742;28;20285;-58
2023/06/18 00:09:07;;;;;;;109.32;15.55;;;;;;;;;;5043134;28;20266;-57
2023/06/18 00:11:33;;;;;;;68.25;11.60;;;;;;;;;;5063264;28;20121;-58
2023/06/18 00:13:58;;;;;;;97.63;14.77;;;;;;;;;;5062378;28;20441;-58
2023/06/18 00:16:24;;;;;;;62.95;11.60;;;;;;;;;;5061721;28;20051;-55
2023/06/18 00:18:49;;;;;;;55.78;11.25;;;;;;;;;;5062816;28;20019;-57
2023/06/18 00:21:14;;;;;;;49.13;10.60;;;;;;;;;;5060879;28;20062;-59
2023/06/18 00:23:40;;;;;;;60.70;11.70;;;;;;;;;;5062125;28;20032;-58
2023/06/18 00:26:05;;;;;;;120.90;15.30;;;;;;;;;;5057847;28;20068;-58
2023/06/18 00:28:31;;;;;;;57.30;11.20;;;;;;;;;;5061788;28;20036;-57
2023/06/18 00:30:56;;;;;;;58.65;11.45;;;;;;;;;;5060785;28;20056;-59
2023/06/18 00:33:22;;;;;;;61.35;10.52;;;;;;;;;;5063291;28;20024;-58
2023/06/18 00:35:48;;;;;;;70.60;12.18;;;;;;;;;;5061053;28;20032;-57
2023/06/18 00:38:16;;;;;;;97.78;14.02;;;;;;;;;;5061096;28;20420;-56
2023/06/18 00:40:42;;;;;;;65.03;11.70;;;;;;;;;;5059480;28;20181;-56
2023/06/18 00:43:08;;;;;;;100.40;14.45;;;;;;;;;;5060144;28;20922;-59
2023/06/18 00:45:34;;;;;;;59.05;10.88;;;;;;;;;;5060781;28;20032;-57
2023/06/18 00:48:00;;;;;;;86.38;13.13;;;;;;;;;;5058425;28;20035;-57
2023/06/18 00:50:26;;;;;;;69.03;12.00;;;;;;;;;;5063001;28;20013;-59
2023/06/18 00:52:59;;;;;;;53.70;10.25;;;;;;;;;;5062679;28;20286;-56
2023/06/18 00:55:26;;;;;;;61.28;11.18;;;;;;;;;;5060524;28;20040;-57
2023/06/18 00:57:59;;;;;;;103.78;13.98;;;;;;;;;;5061835;28;20024;-58
2023/06/18 01:00:25;;;;;;;63.00;11.45;;;;;;;;;;5060628;28;20028;-55
2023/06/18 01:02:53;;;;;;;78.00;12.80;;;;;;;;;;5062571;28;20024;-57
2023/06/18 01:05:19;;;;;;;63.05;11.40;;;;;;;;;;5059294;28;20728;-59
2023/06/18 01:07:47;;;;;;;67.03;11.70;;;;;;;;;;5062523;28;20024;-60
2023/06/18 01:10:13;;;;;;;88.30;12.93;;;;;;;;;;5045072;28;20112;-58
2023/06/18 01:12:39;;;;;;;52.40;10.63;;;;;;;;;;5061281;28;20058;-58
2023/06/18 01:15:04;;;;;;;92.57;13.45;;;;;;;;;;5060141;28;20109;-58
2023/06/18 01:17:33;;;;;;;56.30;10.60;;;;;;;;;;5061794;28;20020;-57
2023/06/18 01:20:10;;;;;;;41.13;10.32;;;;;;;;;;5059895;28;20074;-57
2023/06/18 01:22:44;;;;;;;79.78;12.23;;;;;;;;;;5062897;28;20136;-58
2023/06/18 01:25:10;;;;;;;104.57;14.27;;;;;;;;;;5060973;28;20029;-56
2023/06/18 01:27:40;;;;;;;79.50;12.90;;;;;;;;;;5059298;28;20074;-58
2023/06/18 01:30:09;;;;;;;110.80;15.18;;;;;;;;;;5060208;28;20162;-58
2023/06/18 01:32:36;;;;;;;57.10;10.98;;;;;;;;;;5058131;28;20040;-58
2023/06/18 10:09:37;;;;;;;69.75;9.88;;;;;;;;;;5024063;28;20394;-59
2023/06/18 10:12:03;;;;;;;46.00;7.63;;;;;;;;;;5007651;28;20041;-58
2023/06/18 10:14:29;;;;;;;73.32;9.98;;;;;;;;;;5010501;28;20044;-56
2023/06/18 10:16:57;;;;;;;59.40;8.55;;;;;;;;;;5020506;28;20033;-56
2023/06/18 10:19:29;;;;;;;63.13;8.93;;;;;;;;;;5039608;28;20033;-58
2023/06/18 10:21:57;;;;;;;38.03;7.10;;;;;;;;;;5024429;28;20087;-57
2023/06/18 10:24:24;;;;;;;35.08;6.68;;;;;;;;;;5029113;28;20227;-58
2023/06/18 10:26:49;;;;;;;66.05;9.63;;;;;;;;;;5024995;28;20057;-57
2023/06/18 10:29:15;;;;;;;39.15;6.90;;;;;;;;;;5027938;28;20025;-56
2023/06/18 10:31:40;;;;;;;68.50;10.13;;;;;;;;;;5020319;28;20037;-56
2023/06/18 10:34:06;;;;;;;42.30;7.90;;;;;;;;;;5025746;28;20022;-57
2023/06/18 10:36:32;;;;;;;33.58;6.95;;;;;;;;;;5028474;28;20033;-56
2023/06/18 10:38:57;;;;;;;39.47;7.75;;;;;;;;;;5025417;28;20458;-56
2023/06/18 10:41:23;;;;;;;40.55;7.57;;;;;;;;;;5028560;28;20037;-57
2023/06/18 10:43:51;;;;;;;67.10;11.07;;;;;;;;;;5026260;28;20395;-56
2023/06/18 10:46:17;;;;;;;39.10;7.57;;;;;;;;;;5026750;28;20033;-57
2023/06/18 10:49:02;;;;;;;57.63;9.70;;;;;;;;;;5026582;28;20024;-58
2023/06/18 10:51:28;;;;;;;48.80;8.63;;;;;;;;;;5024934;28;20029;-55
2023/06/18 10:54:14;;;;;;;62.20;9.60;;;;;;;;;;5028619;28;20573;-55
2023/06/18 10:56:48;;;;;;;64.15;10.23;;;;;;;;;;5023870;28;20036;-56
2023/06/18 10:59:13;;;;;;;47.30;8.30;;;;;;;;;;5029666;28;20476;-58
2023/06/18 11:01:42;;;;;;;77.23;11.63;;;;;;;;;;5025530;28;20563;-58
2023/06/18 11:04:07;;;;;;;35.08;7.20;;;;;;;;;;5025166;28;20502;-56
2023/06/18 11:06:32;;;;;;;28.00;6.63;;;;;;;;;;5027163;28;20042;-58
2023/06/18 11:08:57;;;;;;;27.83;6.43;;;;;;;;;;5023602;28;20403;-56
2023/06/18 11:11:24;;;;;;;42.67;8.18;;;;;;;;;;5024453;28;20275;-57
2023/06/18 11:13:55;;;;;;;69.22;10.80;;;;;;;;;;5024682;28;20271;-59
2023/06/18 11:16:21;;;;;;;34.08;7.03;;;;;;;;;;5025880;28;20029;-55
2023/06/18 11:18:46;;;;;;;75.45;11.45;;;;;;;;;;5022452;28;20033;-56
2023/06/18 11:21:16;;;;;;;34.05;7.00;;;;;;;;;;5012030;28;20852;-55
2023/06/18 11:23:42;;;;;;;75.47;11.68;;;;;;;;;;5011201;28;20111;-55
2023/06/18 11:26:12;;;;;;;49.95;8.55;;;;;;;;;;5010750;28;20048;-56
2023/06/18 11:28:37;;;;;;;54.75;9.23;;;;;;;;;;5012096;28;20072;-55
2023/06/18 11:31:03;;;;;;;45.60;8.25;;;;;;;;;;5012628;28;20113;-58
2023/06/18 11:33:29;;;;;;;44.65;8.70;;;;;;;;;;5015827;28;20582;-56
2023/06/18 11:36:05;;;;;;;93.32;13.18;;;;;;;;;;5014375;28;20135;-57
2023/06/18 11:38:31;;;;;;;52.92;8.52;;;;;;;;;;5008384;28;21093;-58
2023/06/18 11:40:56;;;;;;;43.60;7.57;;;;;;;;;;5012384;28;20565;-56
2023/06/18 11:43:21;;;;;;;45.93;7.83;;;;;;;;;;5011138;28;20025;-58
2023/06/18 11:45:51;;;;;;;92.07;12.15;;;;;;;;;;5011373;28;20033;-58
2023/06/18 11:48:17;;;;;;;33.72;7.10;;;;;;;;;;5013667;28;20025;-56
2023/06/18 11:50:43;;;;;;;63.17;10.32;;;;;;;;;;5010739;28;20060;-57
2023/06/18 11:53:09;;;;;;;36.55;7.00;;;;;;;;;;5012866;28;20029;-57
2023/06/18 11:55:36;;;;;;;35.70;7.50;;;;;;;;;;5011702;28;20063;-57
2023/06/18 11:58:02;;;;;;;37.67;7.40;;;;;;;;;;5011937;28;20617;-56
2023/06/18 12:00:27;;;;;;;38.70;7.38;;;;;;;;;;5014682;28;21090;-56
2023/06/18 12:02:53;;;;;;;55.17;8.75;;;;;;;;;;5013575;28;20057;-57
2023/06/18 12:05:18;;;;;;;38.78;7.07;;;;;;;;;;5009926;28;20024;-56
2023/06/18 12:07:45;;;;;;;74.77;11.03;;;;;;;;;;5009633;28;20128;-57
2023/06/18 12:10:11;;;;;;;40.08;7.03;;;;;;;;;;5011848;28;20085;-58
2023/06/18 12:12:58;;;;;;;43.33;8.05;;;;;;;;;;5015019;28;20056;-58
2023/06/18 12:15:30;;;;;;;39.58;7.53;;;;;;;;;;5014218;28;20759;-55
2023/06/18 12:17:55;;;;;;;;;;;;;;;;;;5016954;28;20089;-56
2023/06/18 12:20:21;;;;;;;41.93;7.30;;;;;;;;;;5015785;28;19912;-55
2023/06/18 12:22:47;;;;;;;76.18;11.45;;;;;;;;;;5012970;28;20722;-58
2023/06/18 12:25:13;;;;;;;45.22;7.95;;;;;;;;;;5009304;28;20033;-57
2023/06/18 12:27:42;;;;;;;41.03;7.03;;;;;;;;;;5016060;28;20562;-53
2023/06/18 12:30:08;;;;;;;40.55;7.40;;;;;;;;;;5011096;28;20052;-55
2023/06/18 12:32:33;;;;;;;48.17;8.15;;;;;;;;;;5012730;28;20038;-57
2023/06/18 12:35:09;;;;;;;30.55;7.07;;;;;;;;;;5008828;28;21730;-56
2023/06/18 12:37:36;;;;;;;54.15;8.13;;;;;;;;;;5013059;28;20163;-57
2023/06/18 12:40:11;;;;;;;44.45;7.82;;;;;;;;;;5011600;28;20009;-57
2023/06/18 12:42:37;;;;;;;40.03;7.28;;;;;;;;;;5009018;28;20088;-58
2023/06/18 12:45:02;;;;;;;40.97;7.68;;;;;;;;;;5011337;28;20100;-58
2023/06/18 12:47:28;;;;;;;32.38;6.43;;;;;;;;;;5015236;28;20041;-56
2023/06/18 12:49:53;;;;;;;69.07;10.15;;;;;;;;;;5008559;28;20038;-57
2023/06/18 12:52:19;;;;;;;37.60;7.70;;;;;;;;;;5009833;28;20463;-58
2023/06/18 12:54:45;;;;;;;58.28;9.65;;;;;;;;;;5005758;28;20404;-56
2023/06/18 12:57:13;;;;;;;36.22;6.97;;;;;;;;;;5011343;28;20522;-58
2023/06/18 12:59:46;;;;;;;35.60;7.20;;;;;;;;;;5012057;28;20484;-57
2023/06/18 13:02:12;;;;;;;53.95;8.68;;;;;;;;;;5010411;28;20048;-56
2023/06/18 13:04:41;;;;;;;64.78;9.45;;;;;;;;;;5013149;28;20021;-57
2023/06/18 13:07:06;;;;;;;46.17;8.10;;;;;;;;;;5009341;28;20069;-58
2023/06/18 13:09:31;;;;;;;46.77;8.00;;;;;;;;;;5013056;28;20108;-56
2023/06/18 13:11:56;;;;;;;96.50;12.20;;;;;;;;;;5008994;28;20136;-56
2023/06/18 13:14:22;;;;;;;47.73;8.07;;;;;;;;;;5015601;28;20273;-55
2023/06/18 13:16:47;;;;;;;95.95;13.07;;;;;;;;;;5009841;28;20280;-55
2023/06/18 13:19:12;;;;;;;59.37;9.40;;;;;;;;;;5010863;28;20129;-57
2023/06/18 13:21:39;;;;;;;56.67;9.23;;;;;;;;;;5009888;28;20265;-57
2023/06/18 13:24:04;;;;;;;67.57;10.25;;;;;;;;;;5010732;28;20026;-57
2023/06/18 13:26:30;;;;;;;59.75;9.80;;;;;;;;;;5011198;28;20032;-56
2023/06/18 13:28:55;;;;;;;96.65;12.85;;;;;;;;;;5010831;28;20032;-60
2023/06/18 13:31:20;;;;;;;55.13;9.13;;;;;;;;;;5014728;28;20029;-57
2023/06/18 13:33:46;;;;;;;68.00;10.27;;;;;;;;;;5012206;28;20848;-57
2023/06/18 13:36:11;;;;;;;57.00;9.13;;;;;;;;;;5006420;28;20140;-56
2023/06/18 13:38:36;;;;;;;57.90;9.37;;;;;;;;;;5011555;28;20022;-55
2023/06/18 13:41:02;;;;;;;98.25;12.85;;;;;;;;;;5006963;28;20053;-58
2023/06/18 13:43:27;;;;;;;57.75;9.30;;;;;;;;;;5009737;28;20025;-56
2023/06/18 13:45:53;;;;;;;98.65;13.00;;;;;;;;;;5007048;28;20045;-57
2023/06/18 13:48:18;;;;;;;67.82;9.93;;;;;;;;;;5011636;28;20423;-55
2023/06/18 13:50:44;;;;;;;57.27;9.80;;;;;;;;;;5008509;28;20136;-53
2023/06/18 13:53:09;;;;;;;60.57;9.60;;;;;;;;;;5016071;28;20259;-57
2023/06/18 13:55:35;;;;;;;64.78;9.98;;;;;;;;;;5006618;28;20545;-57
2023/06/18 13:58:00;;;;;;;80.65;11.57;;;;;;;;;;5008769;28;20018;-56
2023/06/18 14:00:25;;;;;;;55.70;9.57;;;;;;;;;;5015262;28;20040;-56
2023/06/18 14:02:51;;;;;;;101.70;13.75;;;;;;;;;;5007911;28;20021;-54
2023/06/18 14:05:16;;;;;;;59.20;9.63;;;;;;;;;;5010749;28;20060;-55
2023/06/18 14:07:42;;;;;;;57.38;9.77;;;;;;;;;;5007268;28;20036;-56
2023/06/18 14:10:08;;;;;;;61.20;9.77;;;;;;;;;;5011280;28;20040;-54
2023/06/18 14:12:33;;;;;;;52.25;8.82;;;;;;;;;;5010191;28;20024;-56
2023/06/18 14:14:59;;;;;;;76.50;10.63;;;;;;;;;;5010585;28;20965;-55
2023/06/18 14:17:25;;;;;;;59.03;9.43;;;;;;;;;;5008107;28;20099;-58
2023/06/18 14:19:51;;;;;;;90.97;13.40;;;;;;;;;;5008605;28;20021;-58
2023/06/18 14:22:16;;;;;;;58.30;9.57;;;;;;;;;;5010474;28;20103;-57
2023/06/18 14:24:41;;;;;;;65.23;10.33;;;;;;;;;;5004788;28;20406;-55
2023/06/18 14:27:06;;;;;;;53.17;9.20;;;;;;;;;;5005834;28;20038;-55
2023/06/18 14:29:32;;;;;;;55.13;9.20;;;;;;;;;;5009733;28;20597;-56
2023/06/18 14:31:58;;;;;;;97.25;13.52;;;;;;;;;;5007489;28;20060;-56
2023/06/18 14:34:23;;;;;;;61.60;9.95;;;;;;;;;;5008518;28;20109;-56
2023/06/18 14:36:49;;;;;;;64.60;10.07;;;;;;;;;;5007934;28;20080;-58
2023/06/18 14:39:14;;;;;;;73.20;11.27;;;;;;;;;;5009456;28;20375;-58
2023/06/18 14:41:40;;;;;;;61.45;9.88;;;;;;;;;;5009631;28;20128;-57
2023/06/18 14:44:05;;;;;;;116.03;14.38;;;;;;;;;;5008619;28;20021;-55
2023/06/18 14:46:30;;;;;;;65.17;10.10;;;;;;;;;;5009203;28;20559;-55
2023/06/18 14:48:56;;;;;;;96.18;13.38;;;;;;;;;;5012523;28;20276;-54
2023/06/18 14:51:21;;;;;;;59.83;9.65;;;;;;;;;;5008820;28;20518;-56
2023/06/18 14:53:51;;;;;;;64.73;10.27;;;;;;;;;;5011405;28;20013;-58
2023/06/18 14:56:16;;;;;;;62.80;9.63;;;;;;;;;;5011530;28;20080;-55
2023/06/18 14:58:42;;;;;;;60.85;9.82;;;;;;;;;;5009618;28;20033;-56
2023/06/18 15:01:08;;;;;;;65.87;10.23;;;;;;;;;;5011960;28;20408;-55
2023/06/18 15:03:33;;;;;;;47.33;8.85;;;;;;;;;;5012962;28;20605;-54
2023/06/18 15:05:58;;;;;;;118.77;15.47;;;;;;;;;;5007378;28;20042;-54
2023/06/18 15:08:24;;;;;;;79.13;11.57;;;;;;;;;;5008851;28;20531;-56
2023/06/18 15:10:49;;;;;;;58.90;9.75;;;;;;;;;;5016088;28;20033;-54
2023/06/18 15:13:16;;;;;;;52.03;9.23;;;;;;;;;;5012899;28;20531;-56
2023/06/18 15:15:41;;;;;;;71.68;10.75;;;;;;;;;;5011108;28;20132;-56
2023/06/18 15:18:06;;;;;;;83.47;11.23;;;;;;;;;;5009508;28;20031;-57
2023/06/18 15:20:38;;;;;;;56.00;9.73;;;;;;;;;;5015557;28;20034;-58
2023/06/18 15:23:03;;;;;;;;;;;;;;;;;;5011678;28;20575;-60
2023/06/18 15:25:28;;;;;;;64.80;9.68;;;;;;;;;;5011270;28;19917;-60
2023/06/18 15:27:54;;;;;;;84.28;11.93;;;;;;;;;;5013275;28;20026;-57
2023/06/18 15:30:19;;;;;;;62.28;9.65;;;;;;;;;;5013642;28;20025;-57
2023/06/18 15:32:44;;;;;;;55.05;9.27;;;;;;;;;;5015216;28;20042;-59
2023/06/18 15:35:10;;;;;;;52.95;9.18;;;;;;;;;;5009657;28;21345;-58
2023/06/18 15:37:35;;;;;;;64.87;10.37;;;;;;;;;;5009317;28;20097;-59
2023/06/18 15:40:00;;;;;;;89.35;12.95;;;;;;;;;;5010141;28;20404;-58
2023/06/18 15:42:25;;;;;;;61.93;9.80;;;;;;;;;;5012888;28;20157;-57
2023/06/18 15:44:51;;;;;;;53.07;9.20;;;;;;;;;;5013252;28;20364;-57
2023/06/18 15:47:16;;;;;;;65.70;10.00;;;;;;;;;;5012976;28;20021;-57
2023/06/18 15:49:42;;;;;;;58.33;9.88;;;;;;;;;;5011778;28;20029;-58
2023/06/18 15:52:07;;;;;;;87.93;13.37;;;;;;;;;;5010509;28;20554;-58
2023/06/18 15:54:32;;;;;;;58.45;9.82;;;;;;;;;;5008829;28;20120;-56
2023/06/18 15:56:57;;;;;;;93.72;12.65;;;;;;;;;;5012043;28;20437;-57
2023/06/18 15:59:24;;;;;;;58.47;11.00;;;;;;;;;;5013382;28;20738;-56
2023/06/18 16:01:49;;;;;;;58.92;9.77;;;;;;;;;;5011495;28;20030;-56
2023/06/18 16:04:15;;;;;;;59.92;9.82;;;;;;;;;;5009534;28;20024;-55
2023/06/18 16:06:40;;;;;;;62.67;9.77;;;;;;;;;;5012758;28;20479;-56
2023/06/18 16:09:06;;;;;;;83.23;12.40;;;;;;;;;;5010558;28;20326;-56
2023/06/18 16:11:31;;;;;;;62.92;10.50;;;;;;;;;;5012897;28;20056;-57
2023/06/18 16:13:57;;;;;;;79.57;11.53;;;;;;;;;;5011884;28;20367;-55
2023/06/18 16:16:22;;;;;;;61.97;9.98;;;;;;;;;;5013247;28;20422;-56
2023/06/18 16:18:47;;;;;;;62.80;10.43;;;;;;;;;;5014389;28;20128;-57
2023/06/18 16:21:15;;;;;;;66.40;10.40;;;;;;;;;;5010601;28;20883;-57
2023/06/18 16:23:56;;;;;;;53.30;9.85;;;;;;;;;;5011118;28;20053;-56
2023/06/18 16:26:22;;;;;;;59.38;9.80;;;;;;;;;;5009056;28;20030;-55
2023/06/18 16:28:50;;;;;;;48.72;8.98;;;;;;;;;;5012881;28;20052;-54
2023/06/18 16:31:16;;;;;;;61.85;11.00;;;;;;;;;;5012776;28;20058;-57
2023/06/18 16:33:41;;;;;;;68.40;10.95;;;;;;;;;;5007525;28;20132;-53
2023/06/18 16:36:07;;;;;;;118.97;16.43;;;;;;;;;;5009701;28;20036;-56
2023/06/18 16:38:32;;;;;;;75.80;13.93;;;;;;;;;;5010086;28;20268;-56
2023/06/18 16:40:57;;;;;;;74.10;11.13;;;;;;;;;;5008067;28;20463;-56
2023/06/18 16:43:22;;;;;;;53.63;10.70;;;;;;;;;;5009751;28;20014;-55
2023/06/18 16:45:48;;;;;;;65.40;10.33;;;;;;;;;;5010511;28;20691;-57
2023/06/18 16:48:13;;;;;;;94.87;13.90;;;;;;;;;;5009880;28;20446;-54
2023/06/18 16:50:38;;;;;;;52.78;9.48;;;;;;;;;;5011739;28;20287;-55
2023/06/18 16:53:03;;;;;;;87.28;11.80;;;;;;;;;;5009348;28;20013;-56
2023/06/18 16:55:29;;;;;;;47.10;8.70;;;;;;;;;;5007138;28;20038;-57
2023/06/18 16:57:54;;;;;;;58.70;8.67;;;;;;;;;;5010997;28;20795;-55
2023/06/18 17:00:20;;;;;;;60.13;10.30;;;;;;;;;;5011084;28;20263;-55
2023/06/18 17:02:45;;;;;;;57.95;10.27;;;;;;;;;;5009334;28;20022;-56
2023/06/18 17:05:11;;;;;;;87.90;13.93;;;;;;;;;;5008498;28;20059;-55
2023/06/18 17:07:37;;;;;;;58.28;10.40;;;;;;;;;;5008805;28;20542;-56
2023/06/18 17:10:02;;;;;;;97.38;13.88;;;;;;;;;;5008716;28;20543;-55
2023/06/18 17:12:27;;;;;;;52.42;9.57;;;;;;;;;;5010902;28;20056;-54
2023/06/18 17:14:52;;;;;;;56.47;9.50;;;;;;;;;;5008472;28;20508;-55
2023/06/18 17:17:20;;;;;;;49.37;9.77;;;;;;;;;;5007763;28;20368;-53
2023/06/18 17:19:45;;;;;;;52.17;10.07;;;;;;;;;;5010597;28;20321;-56
2023/06/18 17:22:11;;;;;;;106.82;14.65;;;;;;;;;;5009877;28;20037;-56
2023/06/18 17:24:36;;;;;;;58.08;9.70;;;;;;;;;;5009177;28;20061;-55
2023/06/18 17:27:01;;;;;;;77.30;11.00;;;;;;;;;;5012311;28;20821;-55
2023/06/18 17:29:27;;;;;;;65.00;10.70;;;;;;;;;;5011895;28;20029;-56
2023/06/18 17:31:53;;;;;;;65.70;10.67;;;;;;;;;;5011254;28;20778;-56
2023/06/18 17:34:18;;;;;;;62.97;10.02;;;;;;;;;;5015446;28;20312;-56
2023/06/18 17:36:44;;;;;;;64.93;10.47;;;;;;;;;;5012945;28;20048;-58
2023/06/18 17:39:09;;;;;;;91.53;13.20;;;;;;;;;;5006507;28;20282;-57
2023/06/18 17:41:35;;;;;;;65.10;10.18;;;;;;;;;;5011933;28;20041;-56
2023/06/18 17:44:00;;;;;;;94.53;12.93;;;;;;;;;;5009803;28;20029;-58
2023/06/18 17:46:26;;;;;;;54.17;9.27;;;;;;;;;;5006635;28;20038;-56
2023/06/18 17:48:51;;;;;;;65.27;9.93;;;;;;;;;;5012911;28;20035;-57
2023/06/18 17:51:16;;;;;;;93.13;12.67;;;;;;;;;;5007003;28;20033;-56
2023/06/18 17:53:42;;;;;;;61.08;9.98;;;;;;;;;;5010015;28;20017;-58
2023/06/18 17:56:07;;;;;;;118.10;15.15;;;;;;;;;;5008474;28;20155;-57
2023/06/18 17:58:33;;;;;;;60.60;10.15;;;;;;;;;;5011603;28;20036;-56
2023/06/18 18:00:58;;;;;;;58.35;9.50;;;;;;;;;;5011698;28;20091;-58
2023/06/18 18:03:24;;;;;;;53.83;9.20;;;;;;;;;;5012287;28;20457;-56
2023/06/18 18:05:49;;;;;;;67.40;10.70;;;;;;;;;;5009018;28;20391;-55
2023/06/18 18:08:15;;;;;;;101.10;13.93;;;;;;;;;;5010136;28;20037;-56
2023/06/18 18:10:41;;;;;;;65.47;10.77;;;;;;;;;;5009681;28;20542;-56
2023/06/18 18:13:06;;;;;;;107.75;13.85;;;;;;;;;;5005944;28;20040;-57
2023/06/18 18:15:31;;;;;;;53.40;9.13;;;;;;;;;;5007305;28;20076;-54
2023/06/18 18:17:57;;;;;;;52.05;9.02;;;;;;;;;;5008143;28;20549;-54
2023/06/18 18:20:22;;;;;;;80.93;11.33;;;;;;;;;;5008270;28;20036;-56
2023/06/18 18:22:47;;;;;;;62.03;10.17;;;;;;;;;;5011387;28;20860;-56
2023/06/18 18:25:12;;;;;;;94.87;13.47;;;;;;;;;;5007396;28;20447;-56
2023/06/18 18:27:38;;;;;;;70.25;10.73;;;;;;;;;;5007587;28;20033;-54
2023/06/18 18:30:03;;;;;;;43.57;9.67;;;;;;;;;;5006790;28;20125;-53
2023/06/18 18:32:28;;;;;;;58.60;10.85;;;;;;;;;;5014767;28;20029;-53
2023/06/18 18:34:53;;;;;;;58.57;10.40;;;;;;;;;;5010123;28;20149;-54
2023/06/18 18:37:19;;;;;;;95.97;13.03;;;;;;;;;;5009709;28;20280;-57
2023/06/18 18:39:44;;;;;;;50.63;9.32;;;;;;;;;;5009265;28;20059;-58
2023/06/18 18:42:09;;;;;;;103.07;13.67;;;;;;;;;;5010370;28;20468;-55
2023/06/18 18:44:35;;;;;;;47.57;9.30;;;;;;;;;;5016514;28;20535;-54
2023/06/18 18:47:00;;;;;;;45.40;9.20;;;;;;;;;;5012966;28;20280;-56
2023/06/18 18:49:28;;;;;;;48.80;8.97;;;;;;;;;;5013329;28;20030;-54
2023/06/18 18:51:53;;;;;;;55.10;9.73;;;;;;;;;;5011839;28;20052;-57
2023/06/18 18:54:19;;;;;;;108.82;14.50;;;;;;;;;;5010437;28;20078;-54
2023/06/18 18:56:45;;;;;;;70.15;10.95;;;;;;;;;;5010658;28;20038;-57
2023/06/18 18:59:10;;;;;;;107.97;14.57;;;;;;;;;;5014185;28;20400;-57
2023/06/18 19:01:39;;;;;;;71.55;10.50;;;;;;;;;;5014597;28;20218;-56
2023/06/18 19:04:05;;;;;;;99.85;13.07;;;;;;;;;;5012622;28;20033;-56
2023/06/18 19:06:30;;;;;;;77.93;11.20;;;;;;;;;;5013639;28;20045;-55
2023/06/18 19:08:55;;;;;;;55.55;10.43;;;;;;;;;;5013238;28;20284;-57
2023/06/18 19:11:21;;;;;;;129.80;16.15;;;;;;;;;;5011536;28;20085;-57
2023/06/18 19:13:46;;;;;;;74.45;11.57;;;;;;;;;;5016347;28;20060;-56
2023/06/18 19:16:11;;;;;;;106.50;13.50;;;;;;;;;;5013651;28;20069;-57
2023/06/18 19:18:37;;;;;;;92.22;12.25;;;;;;;;;;5016061;28;20030;-57
2023/06/18 19:21:02;;;;;;;76.30;11.93;;;;;;;;;;5016803;28;20043;-57
2023/06/18 19:23:27;;;;;;;81.90;12.50;;;;;;;;;;5012995;28;20525;-57
2023/06/18 19:25:52;;;;;;;91.87;12.70;;;;;;;;;;5017657;28;20459;-55
2023/06/18 19:28:17;;;;;;;122.75;16.23;;;;;;;;;;5010542;28;20455;-55
2023/06/18 19:30:43;;;;;;;68.73;11.20;;;;;;;;;;5011865;28;20038;-57
2023/06/18 19:33:09;;;;;;;97.13;13.13;;;;;;;;;;5011144;28;20836;-56
2023/06/18 19:35:34;;;;;;;67.68;11.27;;;;;;;;;;5010043;28;20346;-57
2023/06/18 19:37:59;;;;;;;71.47;11.57;;;;;;;;;;5010772;28;20036;-56
2023/06/18 19:40:24;;;;;;;105.27;13.87;;;;;;;;;;5008264;28;20299;-55
2023/06/18 19:42:49;;;;;;;72.47;12.00;;;;;;;;;;5011298;28;20252;-54
2023/06/18 19:45:15;;;;;;;114.33;15.53;;;;;;;;;;5010549;28;20272;-57
2023/06/18 19:47:40;;;;;;;83.63;12.75;;;;;;;;;;5011015;28;20024;-55
2023/06/18 19:50:05;;;;;;;60.15;10.80;;;;;;;;;;5008694;28;20025;-58
2023/06/18 19:52:31;;;;;;;68.10;11.73;;;;;;;;;;5010349;28;20029;-57
2023/06/18 19:54:58;;;;;;;72.13;12.30;;;;;;;;;;5013923;28;20390;-56
2023/06/18 19:57:24;;;;;;;106.50;14.88;;;;;;;;;;5009149;28;20116;-53
2023/06/18 19:59:49;;;;;;;74.17;12.53;;;;;;;;;;5013559;28;20021;-56
2023/06/18 20:02:14;;;;;;;117.30;15.57;;;;;;;;;;5007648;28;20363;-56
2023/06/18 20:04:40;;;;;;;81.05;12.95;;;;;;;;;;5014068;28;20017;-57
2023/06/18 20:07:05;;;;;;;65.47;11.97;;;;;;;;;;5009649;28;20038;-55
2023/06/18 20:09:33;;;;;;;79.63;12.27;;;;;;;;;;5014646;28;20045;-54
2023/06/18 20:11:58;;;;;;;58.25;11.10;;;;;;;;;;5013138;28;20327;-55
2023/06/18 20:14:23;;;;;;;121.75;16.35;;;;;;;;;;5010450;28;20375;-54
2023/06/18 20:16:49;;;;;;;80.83;12.90;;;;;;;;;;5013597;28;20095;-57
2023/06/18 20:19:14;;;;;;;114.93;16.40;;;;;;;;;;5010312;28;20248;-55
2023/06/18 20:21:39;;;;;;;79.07;13.05;;;;;;;;;;5010093;28;20637;-55
2023/06/18 20:24:04;;;;;;;96.07;14.00;;;;;;;;;;5011719;28;20037;-54
2023/06/18 20:26:30;;;;;;;75.20;12.70;;;;;;;;;;5010898;28;20786;-54
2023/06/18 20:28:55;;;;;;;75.43;12.87;;;;;;;;;;5011829;28;20280;-55
2023/06/18 20:31:20;;;;;;;112.70;15.80;;;;;;;;;;5011837;28;20280;-56
2023/06/18 20:33:45;;;;;;;70.32;12.38;;;;;;;;;;5015163;28;20272;-56
2023/06/18 20:36:11;;;;;;;86.43;13.75;;;;;;;;;;5010384;28;20030;-56
2023/06/18 20:38:36;;;;;;;82.72;13.35;;;;;;;;;;5015810;28;20153;-56
2023/06/18 20:41:01;;;;;;;64.17;12.10;;;;;;;;;;5014865;28;20025;-57
2023/06/18 20:43:26;;;;;;;116.43;16.70;;;;;;;;;;5009518;28;21098;-55
2023/06/18 20:45:52;;;;;;;92.60;13.93;;;;;;;;;;5011830;28;20038;-54
2023/06/18 20:48:17;;;;;;;117.47;16.60;;;;;;;;;;5012275;28;20053;-58
2023/06/18 20:50:42;;;;;;;61.60;11.80;;;;;;;;;;5008095;28;20276;-58
2023/06/18 20:53:07;;;;;;;79.83;13.50;;;;;;;;;;5013116;28;20027;-57
2023/06/18 20:55:33;;;;;;;60.42;11.73;;;;;;;;;;5010971;28;20300;-57
2023/06/18 20:57:58;;;;;;;63.03;11.82;;;;;;;;;;5014723;28;20022;-57
2023/06/18 21:00:26;;;;;;;131.50;17.42;;;;;;;;;;5009382;28;20140;-56
2023/06/18 21:02:52;;;;;;;70.45;12.38;;;;;;;;;;5011587;28;20024;-54
2023/06/18 21:05:17;;;;;;;121.88;16.88;;;;;;;;;;5008373;28;20025;-55
2023/06/18 21:07:42;;;;;;;92.28;13.63;;;;;;;;;;5011780;28;20350;-55
2023/06/18 21:10:08;;;;;;;74.20;12.50;;;;;;;;;;5013254;28;20470;-57
2023/06/18 21:12:33;;;;;;;61.22;11.32;;;;;;;;;;5006837;28;20005;-54
2023/06/18 21:14:58;;;;;;;89.50;13.87;;;;;;;;;;5008294;28;20021;-56
2023/06/18 21:17:24;;;;;;;113.47;15.85;;;;;;;;;;5009203;28;20284;-55
2023/06/18 21:19:49;;;;;;;80.45;12.65;;;;;;;;;;5008785;28;20021;-57
2023/06/18 21:22:14;;;;;;;85.43;13.30;;;;;;;;;;5006528;28;20064;-56
2023/06/18 21:24:39;;;;;;;68.28;12.00;;;;;;;;;;5011837;28;20607;-58
2023/06/18 21:27:05;;;;;;;66.57;11.70;;;;;;;;;;5015222;28;20041;-56
2023/06/18 21:29:30;;;;;;;123.55;16.63;;;;;;;;;;5009159;28;20060;-55
2023/06/18 21:31:57;;;;;;;58.83;11.27;;;;;;;;;;5010865;28;20547;-55
2023/06/18 21:34:23;;;;;;;122.40;16.50;;;;;;;;;;5007684;28;20356;-57
2023/06/18 21:36:49;;;;;;;98.83;13.80;;;;;;;;;;5008091;28;20038;-56
2023/06/18 21:39:14;;;;;;;67.68;12.05;;;;;;;;;;5009369;28;21079;-55
2023/06/18 21:41:39;;;;;;;76.50;12.50;;;;;;;;;;5011433;28;20032;-56
2023/06/18 21:44:05;;;;;;;109.15;14.48;;;;;;;;;;5010307;28;20060;-56
2023/06/18 21:46:30;;;;;;;118.03;16.23;;;;;;;;;;5005546;28;20037;-56
2023/06/18 21:48:55;;;;;;;68.10;12.35;;;;;;;;;;5009401;28;20030;-55
2023/06/18 21:51:21;;;;;;;149.87;17.77;;;;;;;;;;5009898;28;20033;-55
2023/06/18 21:53:46;;;;;;;65.28;11.73;;;;;;;;;;5014171;28;20355;-53
2023/06/18 21:56:11;;;;;;;68.43;12.30;;;;;;;;;;5011254;28;21003;-54
2023/06/18 21:58:36;;;;;;;82.27;12.53;;;;;;;;;;5006818;28;20014;-57
2023/06/18 22:01:04;;;;;;;64.00;11.87;;;;;;;;;;5009284;28;20034;-57
2023/06/18 22:03:29;;;;;;;118.38;16.35;;;;;;;;;;5004242;28;20883;-56
2023/06/18 22:05:55;;;;;;;107.78;14.23;;;;;;;;;;5009878;28;20030;-54
2023/06/18 22:08:20;;;;;;;101.57;14.87;;;;;;;;;;5006743;28;20029;-55
